< < Back
Terminal Aerodrome Forecast


Current Version              Previous Versions:   1  2  3  4  5  6  7  8  9  

Terminal Aerodrome Forecast

014
FTUS44 KBMX 300520
TAFMGM
TAF
KMGM 300520Z 3006/3106 31003KT P6SM SCT250
     FM300800 00000KT 4SM BR SCT200
     FM301400 03006KT P6SM SCT040 SCT200
     FM301800 34008KT P6SM VCTS SCT040CB=



Latest METAR

341
SAUS80 KWBC 301800 RRB
MTRMGM
METAR KMGM 301753Z 05005KT 10SM FEW037 36/24 A2996 RMK AO2 SLP142
T03610239 10361 20256 58010


USA.gov is the U.S. government's official web portal to all federal, state and local government web resources and services.